MV Melite — V7TM5 — position and weather

sailwx.info

Track history (hours):
 
Tides and Currents Weather Stations Pressure Air Temp Water Temp Dewpoint Dewpoint Depression Visibility Wind Speed Wind Dir Waves Ship Positions

MV Melite

Last reported at 2016-Oct-23 07:33 UTC. Time now 2016-Dec-03 11:38 UTC.
Position N 37°22' E 025°55'.
Warning: this ship's position is 41 days out of date.

Length 225 m; draft 12.9 m.

Type: Cargo ship. MMSI: 538003832.

Date/timePositionNaut miles runAvg speedWind from/ knotsBaromVisibWave heightAir tempDewpointWater temp
2016-Oct-23 07:33N 37°22' E 025°55'5112.9
2016-Oct-23 03:33N 38°10' E 025°31'227 9.7
2016-Oct-22 04:04N 40°56' E 028°52'5 0.5
2016-Oct-21 16:21N 40°58' E 028°58'34410.2
2016-Oct-20 06:33N 46°31' E 030°55'  
2016-Oct-16 12:33N 46°36' E 031°46'7 7.4
2016-Oct-16 11:33N 46°39' E 031°56'9 8.5
2016-Oct-16 10:33N 46°47' E 031°53'5 5.3
2016-Oct-16 09:33N 46°51' E 031°59'0 0.1
2016-Oct-16 05:32N 46°51' E 031°59'0 0.0
2016-Oct-16 04:32N 46°51' E 031°59'0 0.0
2016-Oct-16 02:32N 46°51' E 031°59'0 0.0
2016-Oct-16 01:32N 46°51' E 031°59'0 0.0
2016-Oct-15 23:32N 46°51' E 031°59'0 0.0
2016-Oct-15 22:32N 46°51' E 031°59'0 0.0
2016-Oct-15 19:32N 46°51' E 031°59'0 0.0
2016-Oct-15 17:32N 46°51' E 031°59'0 0.0
2016-Oct-15 16:32N 46°51' E 031°59'0 0.0
2016-Oct-15 14:32N 46°51' E 031°59'0 0.0
2016-Oct-15 11:32N 46°51' E 031°59'0 0.0
2016-Oct-15 06:28N 46°51' E 031°59'0 0.0
2016-Oct-15 04:22N 46°51' E 031°59'0 0.0
2016-Oct-14 23:31N 46°51' E 031°59'0 0.0
2016-Oct-14 18:31N 46°51' E 031°59'0 0.0
2016-Oct-14 17:31N 46°51' E 031°59'0 0.0
2016-Oct-14 16:31N 46°51' E 031°59'0 0.0
2016-Oct-14 15:31N 46°51' E 031°59'0 0.0
2016-Oct-14 14:31N 46°51' E 031°59'0 0.0
2016-Oct-14 13:31N 46°51' E 031°59'0 0.0
2016-Oct-14 11:31N 46°51' E 031°59'0 0.0
2016-Oct-14 10:31N 46°51' E 031°59'0 0.0
2016-Oct-14 09:31N 46°51' E 031°59'0 0.0
2016-Oct-14 07:31N 46°51' E 031°59'0 0.0
2016-Oct-14 02:31N 46°51' E 031°59'0 0.0
2016-Oct-13 22:33N 46°51' E 031°59'0 0.0
2016-Oct-13 21:33N 46°51' E 031°59'0 0.0
2016-Oct-13 20:33N 46°51' E 031°59'0 0.0
2016-Oct-13 17:33N 46°51' E 031°59'0 0.0
2016-Oct-13 16:33N 46°51' E 031°59'0 0.0
2016-Oct-13 14:33N 46°51' E 031°59'0 0.0
2016-Oct-13 13:33N 46°51' E 031°59'0 0.0
2016-Oct-13 12:33N 46°51' E 031°59'  
Track history (hours):
 
Tides and Currents Weather Stations Pressure Air Temp Water Temp Dewpoint Dewpoint Depression Visibility Wind Speed Wind Dir Waves Ship Positions

MV Melite

Last reported at 2016-Oct-23 07:33 UTC. Time now 2016-Dec-03 11:38 UTC.
Position N 37°22' E 025°55'.
Warning: this ship's position is 41 days out of date.

Length 225 m; draft 12.9 m.

Type: Cargo ship. MMSI: 538003832.

Date/timePositionNaut miles runAvg speedWind from/ knotsBaromVisibWave heightAir tempDewpointWater temp
2016-Oct-23 07:33N 37°22' E 025°55'5112.9
2016-Oct-23 03:33N 38°10' E 025°31'227 9.7
2016-Oct-22 04:04N 40°56' E 028°52'5 0.5
2016-Oct-21 16:21N 40°58' E 028°58'34410.2
2016-Oct-20 06:33N 46°31' E 030°55'  
2016-Oct-16 12:33N 46°36' E 031°46'7 7.4
2016-Oct-16 11:33N 46°39' E 031°56'9 8.5
2016-Oct-16 10:33N 46°47' E 031°53'5 5.3
2016-Oct-16 09:33N 46°51' E 031°59'0 0.1
2016-Oct-16 05:32N 46°51' E 031°59'0 0.0
2016-Oct-16 04:32N 46°51' E 031°59'0 0.0
2016-Oct-16 02:32N 46°51' E 031°59'0 0.0
2016-Oct-16 01:32N 46°51' E 031°59'0 0.0
2016-Oct-15 23:32N 46°51' E 031°59'0 0.0
2016-Oct-15 22:32N 46°51' E 031°59'0 0.0
2016-Oct-15 19:32N 46°51' E 031°59'0 0.0
2016-Oct-15 17:32N 46°51' E 031°59'0 0.0
2016-Oct-15 16:32N 46°51' E 031°59'0 0.0
2016-Oct-15 14:32N 46°51' E 031°59'0 0.0
2016-Oct-15 11:32N 46°51' E 031°59'0 0.0
2016-Oct-15 06:28N 46°51' E 031°59'0 0.0
2016-Oct-15 04:22N 46°51' E 031°59'0 0.0
2016-Oct-14 23:31N 46°51' E 031°59'0 0.0
2016-Oct-14 18:31N 46°51' E 031°59'0 0.0
2016-Oct-14 17:31N 46°51' E 031°59'0 0.0
2016-Oct-14 16:31N 46°51' E 031°59'0 0.0
2016-Oct-14 15:31N 46°51' E 031°59'0 0.0
2016-Oct-14 14:31N 46°51' E 031°59'0 0.0
2016-Oct-14 13:31N 46°51' E 031°59'0 0.0
2016-Oct-14 11:31N 46°51' E 031°59'0 0.0
2016-Oct-14 10:31N 46°51' E 031°59'0 0.0
2016-Oct-14 09:31N 46°51' E 031°59'0 0.0
2016-Oct-14 07:31N 46°51' E 031°59'0 0.0
2016-Oct-14 02:31N 46°51' E 031°59'0 0.0
2016-Oct-13 22:33N 46°51' E 031°59'0 0.0
2016-Oct-13 21:33N 46°51' E 031°59'0 0.0
2016-Oct-13 20:33N 46°51' E 031°59'0 0.0
2016-Oct-13 17:33N 46°51' E 031°59'0 0.0
2016-Oct-13 16:33N 46°51' E 031°59'0 0.0
2016-Oct-13 14:33N 46°51' E 031°59'0 0.0
2016-Oct-13 13:33N 46°51' E 031°59'0 0.0
2016-Oct-13 12:33N 46°51' E 031°59'  

Dump ship's entire track history